Time;durP1;ratioP1;P1;durP2;ratioP2;P2;SDS_P1;SDS_P2;PMS_P1;PMS_P2;Temp;Humidity;BMP_temperature;BMP_pressure;BME280_temperature;BME280_humidity;BME280_pressure;Samples;Min_cycle;Max_cycle;Signal;HPM_P1;HPM_P2
2021/01/02 00:02:18;;;;;;;32.70;19.80;;;;;;;5.30;94.17;100820.92;1737003;82;20980;-35
2021/01/02 00:05:07;;;;;;;33.83;19.42;;;;;;;5.31;94.02;100814.54;1714630;82;21079;-37
2021/01/02 00:08:06;;;;;;;32.70;18.73;;;;;;;5.30;93.62;100828.62;1737175;82;20940;-36
2021/01/02 00:10:42;;;;;;;35.92;19.65;;;;;;;5.23;93.27;100845.67;1737110;82;21206;-37
2021/01/02 00:13:37;;;;;;;30.12;17.40;;;;;;;5.10;92.87;100851.10;1736564;82;21086;-38
2021/01/02 00:16:29;;;;;;;39.20;20.68;;;;;;;5.00;92.38;100848.02;1737151;82;21044;-35
2021/01/02 00:19:07;;;;;;;29.12;17.90;;;;;;;4.92;92.22;100849.61;1736917;82;20960;-37
2021/01/02 00:21:40;;;;;;;33.75;19.15;;;;;;;4.85;92.16;100853.39;1737142;82;21491;-36
2021/01/02 00:24:20;;;;;;;30.62;19.17;;;;;;;4.80;92.12;100869.57;1736731;82;21159;-36
2021/01/02 00:27:07;;;;;;;30.57;19.07;;;;;;;4.72;92.26;100862.66;1717757;82;20976;-36
2021/01/02 00:30:02;;;;;;;36.88;20.43;;;;;;;4.70;92.13;100873.31;1737005;82;21024;-37
2021/01/02 00:32:51;;;;;;;34.10;19.50;;;;;;;4.68;92.08;100874.16;1736959;82;20948;-37
2021/01/02 00:35:23;;;;;;;38.48;20.27;;;;;;;4.63;92.03;100877.06;1736963;82;20980;-37
2021/01/02 00:38:07;;;;;;;26.85;17.75;;;;;;;4.59;91.90;100877.02;1726346;82;21214;-37
2021/01/02 00:40:37;;;;;;;31.17;18.52;;;;;;;4.54;91.80;100886.36;1724224;83;20961;-36
2021/01/02 00:43:05;;;;;;;36.85;19.27;;;;;;;4.51;91.77;100886.33;1724272;82;21005;-35
2021/01/02 00:45:35;;;;;;;27.73;17.77;;;;;;;4.48;91.82;100890.54;1724298;83;21468;-36
2021/01/02 00:48:05;;;;;;;27.93;17.67;;;;;;;4.43;91.70;100904.60;1724014;83;21020;-37
2021/01/02 00:50:35;;;;;;;35.23;18.40;;;;;;;4.38;91.72;100912.22;1723662;83;21377;-37
2021/01/02 00:53:21;;;;;;;30.52;18.20;;;;;;;4.35;91.74;100912.17;1723686;83;20996;-37
2021/01/02 00:56:29;;;;;;;29.98;18.10;;;;;;;4.31;91.81;100915.10;1687753;83;21158;-37
2021/01/02 00:59:29;;;;;;;34.55;19.40;;;;;;;4.30;91.82;100923.62;1723560;83;20960;-37
2021/01/02 01:02:20;;;;;;;29.48;18.35;;;;;;;4.25;91.79;100922.70;1723668;83;20949;-37
2021/01/02 01:05:08;;;;;;;30.95;18.42;;;;;;;4.20;91.76;100934.59;1723778;83;22246;-38
2021/01/02 01:07:37;;;;;;;29.50;17.82;;;;;;;4.12;91.70;100937.03;1723560;83;21468;-37
2021/01/02 01:10:10;;;;;;;26.95;17.62;;;;;;;4.00;91.52;100953.47;1723712;83;21032;-36
2021/01/02 01:12:42;;;;;;;28.17;17.12;;;;;;;4.00;91.52;100953.47;1723709;83;20929;-36
2021/01/02 01:15:11;;;;;;;32.20;17.85;;;;;;;3.94;91.46;100956.81;1723692;83;21024;-36
2021/01/02 01:17:57;;;;;;;27.15;15.90;;;;;;;3.86;91.33;100958.36;1723694;83;21092;-36
2021/01/02 01:20:26;;;;;;;;;;;;;;;3.83;91.23;100955.75;1713256;83;20929;-36
2021/01/02 01:23:19;;;;;;;25.35;15.35;;;;;;;3.78;91.09;100957.38;1723674;83;20434;-35
2021/01/02 01:26:08;;;;;;;21.07;13.05;;;;;;;3.74;90.94;100957.33;1723627;83;20945;-37
2021/01/02 01:28:38;;;;;;;22.52;13.90;;;;;;;3.72;90.80;100964.12;1723791;83;20957;-36
2021/01/02 01:31:07;;;;;;;23.83;14.30;;;;;;;3.69;90.75;100960.23;1723705;83;21447;-37
2021/01/02 01:33:36;;;;;;;22.75;14.28;;;;;;;3.67;90.54;100964.46;1676705;83;21040;-35
2021/01/02 01:36:06;;;;;;;23.98;13.80;;;;;;;3.69;90.43;100968.31;1723695;83;20952;-38
2021/01/02 01:38:35;;;;;;;17.67;12.93;;;;;;;3.69;90.30;100978.16;1725929;82;20958;-37
2021/01/02 01:41:14;;;;;;;18.75;12.33;;;;;;;3.69;90.20;100982.39;1725963;83;20988;-36
2021/01/02 01:44:06;;;;;;;19.65;12.10;;;;;;;3.69;90.09;100979.83;1762534;81;21248;-36
2021/01/02 01:46:36;;;;;;;17.92;11.88;;;;;;;3.68;90.03;100979.39;1741860;81;21471;-37
2021/01/02 01:49:11;;;;;;;18.90;11.83;;;;;;;3.68;89.85;100993.07;1762590;81;20985;-36
2021/01/02 01:51:59;;;;;;;16.00;11.73;;;;;;;3.67;89.74;100996.47;1762748;81;20930;-39
2021/01/02 01:55:05;;;;;;;19.98;11.93;;;;;;;3.68;89.71;101000.75;1812789;77;22794;-36
2021/01/02 01:57:39;;;;;;;18.20;11.70;;;;;;;3.62;89.71;101004.89;1784366;80;21030;-38
2021/01/02 02:00:16;;;;;;;14.63;10.72;;;;;;;3.61;89.63;101009.56;1784393;80;22377;-36
2021/01/02 02:02:52;;;;;;;15.72;10.65;;;;;;;3.59;89.56;101015.52;1784143;80;20888;-37
2021/01/02 02:05:24;;;;;;;15.70;11.28;;;;;;;3.57;89.36;101024.88;1784299;80;21014;-36
2021/01/02 02:08:10;;;;;;;18.62;11.08;;;;;;;3.55;89.21;101029.50;1784310;80;21030;-36
2021/01/02 02:10:48;;;;;;;13.50;9.13;;;;;;;3.51;89.14;101030.28;1784396;80;26886;-37
2021/01/02 02:13:23;;;;;;;11.78;8.90;;;;;;;3.50;88.98;101037.52;1784224;80;21153;-37
2021/01/02 02:15:55;;;;;;;11.48;9.43;;;;;;;3.46;88.75;101048.09;1783709;80;20970;-37
2021/01/02 02:18:29;;;;;;;16.07;10.58;;;;;;;3.44;88.52;101051.04;1784289;80;20928;-37
2021/01/02 02:20:59;;;;;;;13.70;9.70;;;;;;;3.40;88.42;101060.78;1784223;79;21029;-37
2021/01/02 02:23:45;;;;;;;15.75;11.10;;;;;;;3.37;88.18;101057.72;1784336;80;21014;-37
2021/01/02 02:26:33;;;;;;;15.50;9.63;;;;;;;3.37;87.88;101065.41;1784328;79;21203;-36
2021/01/02 02:29:12;;;;;;;16.52;9.73;;;;;;;3.35;87.27;101074.75;1784198;80;20999;-36
2021/01/02 02:31:44;;;;;;;15.43;9.95;;;;;;;3.31;87.11;101074.23;1784099;80;20915;-38
2021/01/02 02:34:13;;;;;;;14.07;8.83;;;;;;;3.28;86.93;101082.73;1784338;79;20912;-36
2021/01/02 02:36:42;;;;;;;11.30;8.68;;;;;;;3.26;86.78;101086.08;1784259;80;20982;-36
2021/01/02 02:39:12;;;;;;;17.82;11.12;;;;;;;3.21;86.81;101089.80;1784165;80;21370;-37
2021/01/02 02:41:48;;;;;;;19.85;10.82;;;;;;;3.20;86.53;101089.36;1784148;80;20923;-38
2021/01/02 02:44:19;;;;;;;16.20;10.28;;;;;;;3.22;86.23;101090.69;1784343;80;21410;-37
2021/01/02 02:46:47;;;;;;;17.42;10.15;;;;;;;3.21;86.20;101090.23;1784243;80;21599;-36
2021/01/02 02:49:18;;;;;;;13.40;9.40;;;;;;;3.20;86.12;101101.30;1784256;80;20927;-36
2021/01/02 02:52:00;;;;;;;15.00;10.60;;;;;;;3.20;85.82;101102.58;1784229;79;21374;-37
2021/01/02 02:54:28;;;;;;;18.70;9.63;;;;;;;3.21;85.52;101109.42;1777612;80;20975;-38
2021/01/02 02:56:56;;;;;;;16.00;9.58;;;;;;;3.22;85.28;101118.83;1776472;80;20907;-38
2021/01/02 02:59:26;;;;;;;12.75;8.68;;;;;;;3.21;85.32;101114.55;1776634;80;21435;-39
2021/01/02 03:01:55;;;;;;;14.40;9.43;;;;;;;3.19;84.86;101123.88;1776433;80;20919;-37
2021/01/02 03:04:23;;;;;;;13.40;8.63;;;;;;;3.18;84.84;101131.95;1776423;80;21332;-37
2021/01/02 03:06:51;;;;;;;13.53;8.98;;;;;;;3.19;84.99;101127.72;1775891;80;20955;-37
2021/01/02 03:09:20;;;;;;;12.25;7.60;;;;;;;3.14;85.02;101125.89;1775904;80;21003;-36
2021/01/02 03:11:49;;;;;;;9.83;6.42;;;;;;;3.14;84.40;101129.73;1775981;80;20973;-37
2021/01/02 03:14:17;;;;;;;7.00;5.92;;;;;;;3.13;84.31;101132.27;1775958;80;21010;-36
2021/01/02 03:16:45;;;;;;;7.72;5.72;;;;;;;3.13;84.10;101140.80;1775916;80;21345;-37
2021/01/02 03:19:13;;;;;;;7.05;5.35;;;;;;;3.10;83.75;101143.29;1775912;80;20964;-36
2021/01/02 03:21:42;;;;;;;5.65;4.67;;;;;;;3.11;83.14;101151.41;1775921;80;20987;-36
2021/01/02 03:24:10;;;;;;;4.55;4.15;;;;;;;3.10;82.67;101147.12;1775943;80;20976;-37
2021/01/02 03:26:40;;;;;;;4.62;4.22;;;;;;;3.10;82.65;101152.67;1743759;80;20964;-36
2021/01/02 03:29:08;;;;;;;3.77;3.47;;;;;;;3.09;82.47;101147.95;1775971;80;21375;-38
2021/01/02 03:31:37;;;;;;;4.08;3.67;;;;;;;3.06;82.59;101146.61;1775816;80;21030;-36
2021/01/02 03:34:05;;;;;;;3.83;3.52;;;;;;;3.05;82.73;101152.55;1775889;80;20888;-36
2021/01/02 03:36:33;;;;;;;4.03;3.62;;;;;;;3.01;82.72;101157.16;1775834;80;20912;-36
2021/01/02 03:39:02;;;;;;;3.75;3.37;;;;;;;2.97;82.82;101163.03;1775926;80;20995;-37
2021/01/02 03:41:31;;;;;;;3.77;3.58;;;;;;;2.98;82.79;101169.88;1775925;80;21348;-35
2021/01/02 03:44:00;;;;;;;3.67;3.37;;;;;;;2.97;82.86;101165.59;1775768;80;20999;-38
2021/01/02 03:46:28;;;;;;;4.08;3.10;;;;;;;2.94;82.84;101171.91;1775958;80;21506;-37
2021/01/02 03:48:56;;;;;;;3.45;3.12;;;;;;;2.93;82.65;101176.58;1775901;80;20877;-36
2021/01/02 03:51:28;;;;;;;4.25;3.00;;;;;;;2.94;82.61;101182.14;1775985;80;20919;-38
2021/01/02 03:53:56;;;;;;;3.67;2.92;;;;;;;2.93;82.68;101191.92;1783851;80;21425;-37
2021/01/02 03:56:24;;;;;;;3.70;3.40;;;;;;;2.91;82.76;101194.43;1792999;80;20935;-36
2021/01/02 03:58:53;;;;;;;3.20;2.90;;;;;;;2.87;82.73;101202.42;1793069;80;20876;-37
2021/01/02 04:01:21;;;;;;;3.25;2.95;;;;;;;2.87;82.32;101205.41;1793111;80;21402;-36
2021/01/02 04:03:49;;;;;;;2.50;2.30;;;;;;;2.87;82.21;101215.21;1793097;80;20962;-37
2021/01/02 04:06:25;;;;;;;2.55;2.45;;;;;;;2.87;81.93;101220.76;1793171;80;21402;-37
2021/01/02 04:08:53;;;;;;;2.90;2.67;;;;;;;2.88;81.68;101227.17;1792911;80;20915;-37
2021/01/02 04:11:22;;;;;;;3.25;2.75;;;;;;;2.86;81.41;101232.66;1793185;80;21133;-38
2021/01/02 04:13:51;;;;;;;3.00;2.40;;;;;;;2.83;81.48;101245.38;1793030;80;20990;-36
2021/01/02 04:16:20;;;;;;;3.10;2.83;;;;;;;2.83;81.23;101249.22;1792966;80;20970;-36
2021/01/02 04:18:49;;;;;;;2.30;2.20;;;;;;;2.84;80.95;101256.06;1793063;80;22455;-37
2021/01/02 04:21:17;;;;;;;2.77;2.62;;;;;;;2.85;80.63;101256.52;1793017;80;21073;-36
2021/01/02 04:23:45;;;;;;;2.80;2.45;;;;;;;2.84;80.47;101268.84;1792999;80;20911;-39
2021/01/02 04:26:21;;;;;;;2.27;2.08;;;;;;;2.83;80.66;101276.06;1793126;80;21442;-36
2021/01/02 04:28:49;;;;;;;2.65;2.55;;;;;;;2.81;80.70;101276.44;1792829;80;21017;-35
2021/01/02 04:31:20;;;;;;;4.72;2.30;;;;;;;2.81;80.30;101275.59;1793063;80;22327;-38
2021/01/02 04:33:49;;;;;;;3.33;3.02;;;;;;;2.82;80.23;101289.68;1792597;80;20998;-36
2021/01/02 04:36:17;;;;;;;4.47;3.27;;;;;;;2.82;80.16;101293.95;1793170;80;21617;-36
2021/01/02 04:38:45;;;;;;;4.65;4.10;;;;;;;2.79;80.20;101303.67;1792997;80;20903;-37
2021/01/02 04:41:14;;;;;;;3.22;3.00;;;;;;;2.78;79.82;101307.05;1793045;80;21916;-35
2021/01/02 04:43:45;;;;;;;7.92;5.25;;;;;;;2.77;79.92;101305.31;1793036;80;21358;-36
2021/01/02 04:46:14;;;;;;;9.13;6.78;;;;;;;2.73;79.83;101309.47;1793001;80;20938;-37
2021/01/02 04:48:44;;;;;;;5.37;4.90;;;;;;;2.74;79.57;101312.91;1792977;80;21058;-36
2021/01/02 04:51:16;;;;;;;7.58;5.92;;;;;;;2.76;79.76;101312.94;1793010;80;20963;-37
2021/01/02 04:53:45;;;;;;;8.53;5.08;;;;;;;2.74;79.66;101316.75;1793019;80;20986;-38
2021/01/02 04:56:13;;;;;;;9.20;5.37;;;;;;;2.75;79.62;101322.70;1792974;80;22118;-37
2021/01/02 04:58:45;;;;;;;7.37;6.67;;;;;;;2.74;79.77;101323.14;1792931;80;20969;-36
2021/01/02 05:01:13;;;;;;;9.00;5.62;;;;;;;2.71;79.85;101329.02;1792937;80;20879;-38
2021/01/02 05:03:46;;;;;;;7.95;5.80;;;;;;;2.71;79.83;101333.28;1792922;80;20966;-36
2021/01/02 05:06:22;;;;;;;6.42;5.70;;;;;;;2.70;79.70;101343.91;1793034;80;20911;-36
2021/01/02 05:08:51;;;;;;;6.00;5.40;;;;;;;2.68;79.79;101344.28;1792948;80;21205;-36
2021/01/02 05:11:20;;;;;;;7.33;5.70;;;;;;;2.63;79.94;101344.56;1792919;80;21022;-36
2021/01/02 05:13:49;;;;;;;5.15;4.67;;;;;;;2.62;80.05;101351.78;1792991;80;20951;-36
2021/01/02 05:16:27;;;;;;;5.35;4.80;;;;;;;2.59;80.27;101356.81;1792989;80;21171;-36
2021/01/02 05:18:58;;;;;;;6.00;5.35;;;;;;;2.55;80.43;101357.55;1793002;80;21599;-36
2021/01/02 05:21:32;;;;;;;6.42;4.85;;;;;;;2.52;80.57;101365.98;1792988;80;21377;-36
2021/01/02 05:24:19;;;;;;;7.87;4.85;;;;;;;2.50;80.58;101366.75;1792861;80;20998;-35
2021/01/02 05:26:58;;;;;;;4.55;4.25;;;;;;;2.47;80.70;101366.27;1784024;80;21184;-37
2021/01/02 05:29:31;;;;;;;7.70;5.37;;;;;;;2.48;80.74;101370.95;1793047;80;21500;-37
2021/01/02 05:32:03;;;;;;;7.05;5.22;;;;;;;2.48;80.81;101373.50;1792997;80;20994;-37
2021/01/02 05:34:32;;;;;;;10.48;5.33;;;;;;;2.45;80.87;101373.03;1792995;80;21134;-36
2021/01/02 05:37:03;;;;;;;5.35;4.50;;;;;;;2.47;80.75;101377.77;1792858;80;20950;-38
2021/01/02 05:39:40;;;;;;;5.47;4.97;;;;;;;2.49;80.76;101381.63;1792941;80;21058;-37
2021/01/02 05:42:08;;;;;;;7.53;5.15;;;;;;;2.48;80.71;101393.56;1793028;80;20995;-37
2021/01/02 05:44:38;;;;;;;8.05;5.55;;;;;;;2.48;80.79;101392.67;1792961;80;21064;-39
2021/01/02 05:47:07;;;;;;;6.70;5.17;;;;;;;2.46;80.86;101399.04;1793025;80;21368;-36
2021/01/02 05:49:41;;;;;;;5.22;4.72;;;;;;;2.46;80.88;101401.59;1792994;80;20939;-38
2021/01/02 05:52:10;;;;;;;8.50;6.75;;;;;;;2.46;80.94;101404.55;1792941;80;21036;-37
2021/01/02 05:54:50;;;;;;;10.08;7.55;;;;;;;2.44;81.05;101412.19;1792800;80;21097;-37
2021/01/02 05:57:29;;;;;;;11.05;7.87;;;;;;;2.44;80.86;101416.87;1793143;80;21362;-36
2021/01/02 05:59:58;;;;;;;12.75;9.43;;;;;;;2.48;80.72;101420.40;1792982;80;21154;-36
2021/01/02 06:02:31;;;;;;;12.63;9.28;;;;;;;2.51;80.34;101429.44;1793065;80;21520;-37
2021/01/02 06:05:09;;;;;;;14.33;11.18;;;;;;;2.50;80.41;101434.09;1793012;80;21477;-37
2021/01/02 06:07:41;;;;;;;13.70;10.38;;;;;;;2.50;80.30;101436.65;1792909;80;21014;-37
2021/01/02 06:10:10;;;;;;;17.17;12.05;;;;;;;2.52;80.28;101444.34;1764447;80;21457;-38
2021/01/02 06:12:40;;;;;;;18.67;13.68;;;;;;;2.52;80.27;101441.39;1792970;80;21365;-36
2021/01/02 06:15:13;;;;;;;22.15;13.58;;;;;;;2.52;80.37;101448.17;1792816;80;21010;-36
2021/01/02 06:17:44;;;;;;;25.02;14.55;;;;;;;2.50;80.40;101453.66;1792906;80;20959;-37
2021/01/02 06:20:14;;;;;;;21.70;14.33;;;;;;;2.51;80.32;101462.67;1792921;80;20879;-36
2021/01/02 06:22:43;;;;;;;21.40;14.70;;;;;;;2.53;80.19;101457.19;1792973;80;20994;-37
2021/01/02 06:25:13;;;;;;;29.52;16.60;;;;;;;2.54;80.17;101455.52;1792997;80;21153;-36
2021/01/02 06:27:45;;;;;;;29.15;18.00;;;;;;;2.54;80.19;101464.03;1792891;78;21481;-38
2021/01/02 06:30:18;;;;;;;29.35;16.85;;;;;;;2.55;80.14;101467.05;1793042;80;20983;-36
2021/01/02 06:32:47;;;;;;;22.42;16.75;;;;;;;2.58;80.13;101473.53;1792984;80;21086;-37
2021/01/02 06:35:19;;;;;;;30.08;20.25;;;;;;;2.59;80.09;101482.94;1792716;80;21057;-37
2021/01/02 06:37:59;;;;;;;31.05;19.32;;;;;;;2.61;80.17;101490.66;1792937;80;21382;-36
2021/01/02 06:40:30;;;;;;;28.38;18.67;;;;;;;2.62;80.25;101494.95;1792402;80;21433;-36
2021/01/02 06:43:00;;;;;;;30.55;19.35;;;;;;;2.65;80.21;101492.48;1793104;80;21551;-38
2021/01/02 06:45:43;;;;;;;27.82;18.73;;;;;;;2.69;80.21;101497.30;1793068;80;21010;-37
2021/01/02 06:48:26;;;;;;;30.90;20.72;;;;;;;2.71;80.17;101501.62;1793197;80;20983;-37
2021/01/02 06:50:56;;;;;;;34.25;22.85;;;;;;;2.72;80.08;101507.19;1793092;80;21201;-36
2021/01/02 06:53:36;;;;;;;31.45;18.35;;;;;;;2.76;80.16;101512.00;1793061;80;20919;-37
2021/01/02 06:56:16;;;;;;;16.85;13.43;;;;;;;2.83;79.70;101509.23;1832572;77;27946;-35
2021/01/02 06:58:51;;;;;;;22.13;14.13;;;;;;;2.88;79.79;101519.18;1817830;79;20978;-35
2021/01/02 07:01:24;;;;;;;20.70;14.63;;;;;;;2.94;79.59;101514.67;1818179;79;22213;-35
2021/01/02 07:03:52;;;;;;;20.55;12.70;;;;;;;2.98;78.77;101516.06;1817812;78;20919;-35
2021/01/02 07:06:24;;;;;;;15.32;10.75;;;;;;;3.01;78.34;101514.02;1817770;79;20982;-34
2021/01/02 07:09:09;;;;;;;13.93;10.68;;;;;;;3.06;78.33;101513.73;1817848;79;20880;-35
2021/01/02 07:11:43;;;;;;;17.70;9.78;;;;;;;3.08;78.11;101523.60;1813644;79;20867;-35
2021/01/02 07:14:19;;;;;;;15.50;10.25;;;;;;;3.08;77.73;101536.39;1817852;79;21197;-37
2021/01/02 07:16:58;;;;;;;11.35;8.03;;;;;;;3.08;77.28;101530.00;1817836;79;21191;-35
2021/01/02 07:19:31;;;;;;;10.03;7.55;;;;;;;3.11;76.47;101536.48;1817898;79;20923;-36
2021/01/02 07:22:05;;;;;;;10.18;8.10;;;;;;;3.12;76.41;101539.50;1817786;79;20974;-37
2021/01/02 07:24:51;;;;;;;9.35;7.28;;;;;;;3.12;75.90;101542.48;1817822;78;20982;-36
2021/01/02 07:27:28;;;;;;;7.60;6.80;;;;;;;3.09;75.15;101558.60;1817838;79;21347;-34
2021/01/02 07:30:06;;;;;;;8.88;6.75;;;;;;;3.08;74.60;101553.45;1817730;79;21493;-36
2021/01/02 07:32:41;;;;;;;6.30;5.55;;;;;;;3.09;74.05;101561.16;1790902;79;21034;-35
2021/01/02 07:35:14;;;;;;;8.45;5.92;;;;;;;3.07;74.14;101567.07;1817724;78;20868;-36
2021/01/02 07:37:46;;;;;;;6.50;5.67;;;;;;;3.02;74.27;101572.03;1817801;78;20991;-35
2021/01/02 07:40:16;;;;;;;8.10;6.12;;;;;;;2.98;74.51;101580.02;1817684;79;21283;-35
2021/01/02 07:42:51;;;;;;;5.78;4.50;;;;;;;2.97;74.65;101590.22;1817799;79;21548;-35
2021/01/02 07:45:26;;;;;;;4.90;4.40;;;;;;;3.02;74.66;101591.23;1817852;79;20927;-36
2021/01/02 07:47:58;;;;;;;5.20;4.70;;;;;;;3.04;74.92;101595.98;1818038;79;20998;-36
2021/01/02 07:50:28;;;;;;;5.30;4.80;;;;;;;3.06;75.17;101605.84;1817816;78;21144;-38
2021/01/02 07:53:00;;;;;;;4.22;3.83;;;;;;;3.07;74.87;101603.74;1817753;78;21464;-36
2021/01/02 07:55:32;;;;;;;3.42;3.12;;;;;;;3.10;75.06;101611.94;1814710;79;21735;-37
2021/01/02 07:58:01;;;;;;;3.37;3.08;;;;;;;3.10;74.53;101614.07;1812902;78;21070;-37
2021/01/02 08:00:29;;;;;;;3.25;3.02;;;;;;;3.08;74.39;101613.58;1812813;79;21010;-35
2021/01/02 08:03:05;;;;;;;3.70;3.12;;;;;;;3.12;74.65;101621.80;1812907;79;21061;-35
2021/01/02 08:05:33;;;;;;;2.92;2.72;;;;;;;3.16;74.72;101620.68;1812892;79;22258;-34
2021/01/02 08:08:02;;;;;;;4.08;2.87;;;;;;;3.21;74.45;101627.63;1812182;79;21474;-35
2021/01/02 08:10:30;;;;;;;3.15;2.95;;;;;;;3.19;74.25;101627.98;1812309;78;21011;-36
2021/01/02 08:13:04;;;;;;;3.95;3.58;;;;;;;3.18;74.11;101623.27;1812330;79;20974;-36
2021/01/02 08:15:37;;;;;;;3.83;3.50;;;;;;;3.15;74.12;101629.58;1812101;79;21407;-37
2021/01/02 08:18:06;;;;;;;;;;;;;;;3.18;74.30;101628.39;1814991;79;21197;-37
2021/01/02 08:20:34;;;;;;;2.95;2.75;;;;;;;3.25;74.39;101630.30;1812298;79;20102;-37
2021/01/02 08:23:07;;;;;;;4.20;2.90;;;;;;;3.31;74.00;101636.03;1812309;79;20911;-37
2021/01/02 08:25:35;;;;;;;3.05;2.83;;;;;;;3.38;73.85;101630.27;1812330;79;21474;-37
2021/01/02 08:28:04;;;;;;;4.03;2.60;;;;;;;3.48;73.60;101629.28;1812337;78;21508;-38
2021/01/02 08:30:33;;;;;;;2.37;1.85;;;;;;;3.56;72.76;101626.13;1812351;78;21304;-37
2021/01/02 08:33:01;;;;;;;2.25;2.05;;;;;;;3.64;72.46;101630.16;1812133;79;21347;-37
2021/01/02 08:35:39;;;;;;;2.47;2.27;;;;;;;3.66;72.25;101627.23;1812295;79;20919;-36
2021/01/02 08:38:08;;;;;;;1.87;1.77;;;;;;;3.72;72.00;101631.67;1812332;78;20959;-37
2021/01/02 08:40:48;;;;;;;2.95;2.50;;;;;;;3.79;71.58;101632.72;1812447;79;21466;-37
2021/01/02 08:43:23;;;;;;;2.33;2.02;;;;;;;3.87;70.59;101634.68;1812434;79;21553;-37
2021/01/02 08:45:59;;;;;;;1.62;1.52;;;;;;;3.96;70.35;101636.64;1812221;79;20972;-38
2021/01/02 08:48:28;;;;;;;2.10;1.72;;;;;;;4.05;70.65;101642.83;1812441;79;20975;-37
2021/01/02 08:50:56;;;;;;;2.20;2.10;;;;;;;4.11;70.28;101642.99;1812211;79;20967;-37
2021/01/02 08:53:31;;;;;;;2.05;1.95;;;;;;;4.17;70.08;101648.31;1812362;79;20987;-36
2021/01/02 08:56:20;;;;;;;1.70;1.60;;;;;;;4.26;69.96;101649.83;1810072;79;21187;-35
2021/01/02 08:58:49;;;;;;;4.78;2.00;;;;;;;4.36;69.55;101643.65;1808820;79;20995;-34
2021/01/02 09:01:17;;;;;;;2.02;1.82;;;;;;;4.45;69.66;101637.50;1808857;79;20991;-35
2021/01/02 09:03:45;;;;;;;2.20;2.10;;;;;;;4.55;70.22;101642.02;1808733;79;20955;-35
2021/01/02 09:06:22;;;;;;;2.08;1.98;;;;;;;4.65;69.74;101645.69;1808858;79;20999;-35
2021/01/02 09:09:01;;;;;;;2.30;1.65;;;;;;;4.78;67.92;101648.14;1808510;79;21201;-37
2021/01/02 09:11:31;;;;;;;2.65;1.87;;;;;;;4.78;67.92;101648.14;1808779;79;20919;-37
2021/01/02 09:14:08;;;;;;;2.92;2.10;;;;;;;4.78;69.11;101649.83;1753852;79;20928;-37
2021/01/02 09:16:38;;;;;;;2.20;2.10;;;;;;;4.78;69.11;101649.83;1808838;79;20995;-37
2021/01/02 09:19:06;;;;;;;2.90;2.35;;;;;;;4.86;68.02;101651.76;1808784;79;21127;-37
2021/01/02 09:21:34;;;;;;;2.70;2.47;;;;;;;4.87;67.94;101641.94;1808799;79;21343;-37
2021/01/02 09:24:09;;;;;;;4.47;2.45;;;;;;;4.84;67.75;101644.44;1752807;79;20916;-37
2021/01/02 09:26:38;;;;;;;;;;;;;;;4.89;67.66;101658.23;1808289;79;20923;-36
2021/01/02 09:29:14;;;;;;;3.42;2.10;;;;;;;4.98;67.54;101664.02;1808857;79;20110;-36
2021/01/02 09:31:42;;;;;;;2.17;2.00;;;;;;;4.91;67.54;101667.27;1808805;79;21050;-36
2021/01/02 09:34:11;;;;;;;1.85;1.75;;;;;;;4.93;67.54;101672.45;1808812;79;21366;-35
2021/01/02 09:36:42;;;;;;;1.98;1.87;;;;;;;4.81;66.62;101668.74;1808821;79;21014;-35
2021/01/02 09:39:13;;;;;;;2.15;2.02;;;;;;;4.78;66.97;101667.39;1808858;79;20915;-37
2021/01/02 09:41:42;;;;;;;2.12;2.02;;;;;;;4.81;66.97;101671.73;1807021;79;20915;-36
2021/01/02 09:44:11;;;;;;;2.58;2.25;;;;;;;4.92;66.95;101665.16;1808923;79;20916;-37
2021/01/02 09:46:41;;;;;;;2.30;2.10;;;;;;;4.96;66.56;101663.55;1806780;79;21423;-36
2021/01/02 09:49:10;;;;;;;3.22;2.30;;;;;;;5.02;66.33;101664.97;1808734;79;20923;-36
2021/01/02 09:51:39;;;;;;;2.60;2.40;;;;;;;5.13;66.55;101660.09;1808802;79;20931;-37
2021/01/02 09:54:08;;;;;;;2.20;2.10;;;;;;;5.23;66.27;101663.74;1808836;79;20908;-36
2021/01/02 09:56:45;;;;;;;2.70;2.50;;;;;;;5.32;66.26;101660.09;1808719;79;20947;-36
2021/01/02 09:59:15;;;;;;;2.72;2.52;;;;;;;5.49;66.19;101657.04;1808855;79;21576;-36
2021/01/02 10:01:43;;;;;;;2.52;2.37;;;;;;;5.68;65.40;101663.00;1808803;79;21533;-37
2021/01/02 10:04:11;;;;;;;6.15;2.42;;;;;;;5.71;64.49;101663.49;1808857;79;20915;-35
2021/01/02 10:06:46;;;;;;;4.40;2.52;;;;;;;5.78;64.28;101665.34;1808748;79;21003;-37
2021/01/02 10:09:14;;;;;;;2.77;2.58;;;;;;;5.85;64.24;101661.20;1808849;79;21018;-36
2021/01/02 10:11:43;;;;;;;4.42;2.77;;;;;;;5.86;64.07;101662.94;1808806;79;21124;-36
2021/01/02 10:14:11;;;;;;;3.02;2.72;;;;;;;5.83;63.96;101674.45;1808649;79;21058;-35
2021/01/02 10:16:39;;;;;;;2.90;2.70;;;;;;;5.88;63.66;101671.55;1808754;79;20927;-36
2021/01/02 10:19:10;;;;;;;2.75;2.55;;;;;;;5.77;63.46;101671.32;1808797;79;20983;-36
2021/01/02 10:21:38;;;;;;;2.55;2.35;;;;;;;5.72;63.99;101675.10;1808840;79;20899;-35
2021/01/02 10:24:08;;;;;;;2.25;2.15;;;;;;;5.88;63.44;101670.27;1808890;79;22724;-35
2021/01/02 10:26:36;;;;;;;1.90;1.80;;;;;;;5.88;63.44;101670.27;1752835;79;21109;-36
2021/01/02 10:29:04;;;;;;;2.00;1.90;;;;;;;5.89;63.91;101668.14;1808713;79;20971;-37
2021/01/02 10:31:33;;;;;;;2.10;1.98;;;;;;;5.98;63.77;101674.77;1808820;79;20891;-36
2021/01/02 10:34:01;;;;;;;2.62;2.42;;;;;;;6.07;64.14;101668.10;1808824;79;20904;-37
2021/01/02 10:36:29;;;;;;;2.65;2.45;;;;;;;6.20;63.37;101662.38;1808672;79;21136;-35
2021/01/02 10:38:57;;;;;;;2.72;2.58;;;;;;;6.15;63.02;101660.11;1808806;79;21465;-36
2021/01/02 10:41:26;;;;;;;2.45;2.25;;;;;;;6.11;62.47;101668.20;1808877;79;20974;-38
2021/01/02 10:43:56;;;;;;;2.45;2.25;;;;;;;6.11;62.47;101668.20;1808730;79;21014;-37
2021/01/02 10:46:24;;;;;;;2.50;2.30;;;;;;;6.20;62.92;101667.52;1808896;79;21513;-35
2021/01/02 10:48:53;;;;;;;2.90;2.25;;;;;;;6.29;62.87;101665.11;1808841;79;21364;-36
2021/01/02 10:51:22;;;;;;;3.42;2.20;;;;;;;6.54;62.72;101664.27;1808755;79;20912;-38
2021/01/02 10:53:50;;;;;;;1.77;1.67;;;;;;;6.54;62.72;101664.27;1808747;79;21006;-36
2021/01/02 10:56:19;;;;;;;2.20;1.92;;;;;;;6.59;62.64;101660.50;1810138;79;20971;-38
2021/01/02 10:58:47;;;;;;;2.65;2.45;;;;;;;6.65;61.92;101664.86;1812156;79;21050;-37
2021/01/02 11:01:16;;;;;;;2.40;2.30;;;;;;;6.52;61.63;101668.52;1812059;79;22570;-37
2021/01/02 11:03:44;;;;;;;2.75;2.52;;;;;;;6.46;61.99;101660.70;1812125;79;21002;-35
2021/01/02 11:06:14;;;;;;;3.42;2.47;;;;;;;6.53;62.24;101661.65;1812214;79;20936;-34
2021/01/02 11:08:44;;;;;;;2.45;2.33;;;;;;;6.73;62.23;101663.30;1812119;79;20919;-34
2021/01/02 11:11:21;;;;;;;2.25;2.05;;;;;;;6.83;61.85;101663.89;1785976;79;20998;-34
2021/01/02 11:13:49;;;;;;;2.50;2.40;;;;;;;6.81;61.55;101664.69;1812148;78;21197;-34
2021/01/02 11:16:17;;;;;;;2.60;2.40;;;;;;;6.74;61.75;101664.59;1812011;79;21002;-35
2021/01/02 11:18:45;;;;;;;2.62;2.50;;;;;;;6.67;61.98;101667.03;1812204;79;21026;-35
2021/01/02 11:21:13;;;;;;;2.37;2.27;;;;;;;6.59;61.95;101672.92;1812171;79;20860;-36
2021/01/02 11:23:42;;;;;;;3.20;2.72;;;;;;;6.47;61.94;101670.15;1812260;78;20856;-34
2021/01/02 11:26:11;;;;;;;2.87;2.67;;;;;;;6.35;62.34;101672.48;1812167;79;22621;-34
2021/01/02 11:28:39;;;;;;;2.52;2.40;;;;;;;6.36;62.71;101672.52;1812102;79;20911;-34
2021/01/02 11:31:07;;;;;;;3.05;2.85;;;;;;;6.36;62.71;101672.52;1812153;79;20959;-34
2021/01/02 11:33:35;;;;;;;2.60;2.50;;;;;;;6.36;62.37;101678.07;1812112;79;20970;-35
2021/01/02 11:36:05;;;;;;;3.05;2.83;;;;;;;6.41;62.25;101682.88;1812197;79;20907;-34
2021/01/02 11:38:33;;;;;;;2.42;2.33;;;;;;;6.40;61.75;101686.28;1812263;79;21765;-35
2021/01/02 11:41:01;;;;;;;2.77;2.58;;;;;;;6.27;62.02;101693.79;1812049;79;20971;-34
2021/01/02 11:43:29;;;;;;;3.55;3.02;;;;;;;6.27;62.77;101689.05;1812363;79;20957;-34
2021/01/02 11:45:58;;;;;;;3.62;3.20;;;;;;;6.26;63.57;101688.20;1812267;79;21014;-34
2021/01/02 11:48:26;;;;;;;4.15;2.80;;;;;;;6.29;63.81;101692.11;1812379;79;20991;-34
2021/01/02 11:50:54;;;;;;;2.98;2.77;;;;;;;6.35;63.83;101693.05;1812211;79;21320;-35
2021/01/02 11:56:24;;;;;;;2.65;2.45;;;;;;;6.30;64.19;101706.70;1776900;79;22652;-35
2021/01/02 11:58:52;;;;;;;;;;;;;;;6.32;64.77;101707.59;1752481;82;21319;-37